Time;durP1;ratioP1;P1;durP2;ratioP2;P2;SDS_P1;SDS_P2;PMS_P1;PMS_P2;Temp;Humidity;BMP_temperature;BMP_pressure;BME280_temperature;BME280_humidity;BME280_pressure;Samples;Min_cycle;Max_cycle;Signal;HPM_P1;HPM_P2
2023/04/04 00:02:07;;;;;;;7.57;2.80;;;;;;;-0.04;52.09;101100.03;10263680;28;20129;-58
2023/04/04 00:07:09;;;;;;;9.70;2.70;;;;;;;-0.09;52.41;101100.91;10262626;28;20495;-58
2023/04/04 00:12:11;;;;;;;6.35;2.80;;;;;;;-0.22;52.66;101088.88;10271298;28;20407;-59
2023/04/04 00:17:12;;;;;;;6.93;2.90;;;;;;;-0.33;53.06;101093.97;10271412;28;20053;-59
2023/04/04 00:22:14;;;;;;;6.43;2.75;;;;;;;-0.33;53.80;101097.41;10270285;28;20403;-59
2023/04/04 00:27:16;;;;;;;6.50;3.05;;;;;;;-0.38;54.62;101096.56;10265702;28;20059;-59
2023/04/04 00:32:18;;;;;;;5.57;2.78;;;;;;;-0.42;54.89;101102.53;10283169;28;20510;-59
2023/04/04 00:37:20;;;;;;;6.72;2.60;;;;;;;-0.49;54.97;101094.78;10265898;28;20118;-59
2023/04/04 00:42:22;;;;;;;6.80;2.97;;;;;;;-0.45;54.75;101097.38;10286608;28;20053;-58
2023/04/04 00:47:28;;;;;;;6.03;2.85;;;;;;;-0.41;54.83;101087.94;10278345;28;20050;-59
2023/04/04 00:52:30;;;;;;;9.38;3.13;;;;;;;-0.23;54.95;101087.16;10263939;28;20097;-58
2023/04/04 00:57:33;;;;;;;6.10;2.95;;;;;;;-0.32;54.68;101091.44;10261923;28;20926;-59
2023/04/04 01:02:35;;;;;;;7.85;2.97;;;;;;;-0.53;55.23;101090.47;10262008;28;20588;-59
2023/04/04 01:07:38;;;;;;;5.75;2.55;;;;;;;-0.66;55.42;101087.03;10262408;28;20070;-59
2023/04/04 01:12:41;;;;;;;9.48;2.75;;;;;;;-0.56;55.60;101086.22;10264216;28;20051;-58
2023/04/04 01:17:44;;;;;;;6.45;2.80;;;;;;;-0.33;55.61;101091.41;10260626;28;20312;-59
2023/04/04 01:22:49;;;;;;;5.22;3.00;;;;;;;-0.24;55.69;101091.44;10263051;28;20058;-59
2023/04/04 01:27:52;;;;;;;8.60;2.97;;;;;;;-0.36;55.63;101083.69;10260779;28;20051;-59
2023/04/04 01:33:01;;;;;;;9.43;2.58;;;;;;;-0.49;56.00;101080.22;10259728;28;20738;-59
2023/04/04 01:38:28;;;;;;;6.13;2.63;;;;;;;-0.38;55.92;101088.84;10260138;28;21010;-59
2023/04/04 01:43:31;;;;;;;6.45;2.60;;;;;;;-0.34;55.66;101088.00;10294601;28;20500;-59
2023/04/04 01:48:34;;;;;;;6.88;2.85;;;;;;;-0.31;55.68;101085.41;10259172;28;20395;-59
2023/04/04 01:53:39;;;;;;;7.65;2.90;;;;;;;-0.36;55.70;101087.13;10281341;28;20455;-59
2023/04/04 01:58:42;;;;;;;7.07;3.08;;;;;;;-0.41;55.95;101082.81;10267360;28;20066;-61
2023/04/04 02:03:44;;;;;;;9.30;3.00;;;;;;;-0.43;56.14;101077.69;10287609;28;20047;-59
2023/04/04 02:08:46;;;;;;;5.80;2.72;;;;;;;-0.45;56.59;101076.81;10273123;28;20050;-59
2023/04/04 02:13:49;;;;;;;4.80;2.60;;;;;;;-0.54;56.99;101079.38;10272934;28;20047;-58
2023/04/04 02:18:52;;;;;;;5.85;2.88;;;;;;;-0.55;56.92;101082.78;10272300;28;20054;-58
2023/04/04 02:23:54;;;;;;;6.05;2.58;;;;;;;-0.56;57.17;101075.94;10282623;28;20130;-59
2023/04/04 02:28:56;;;;;;;7.10;2.80;;;;;;;-0.55;56.90;101079.34;10282298;28;20047;-59
2023/04/04 02:33:58;;;;;;;5.78;2.53;;;;;;;-0.60;57.12;101071.66;10266730;28;20067;-58
2023/04/04 02:38:59;;;;;;;7.25;2.97;;;;;;;-0.63;57.34;101074.19;10267470;28;20050;-59
2023/04/04 02:44:03;;;;;;;5.40;2.70;;;;;;;-0.69;57.48;101078.44;10264563;28;20569;-59
2023/04/04 02:49:06;;;;;;;7.85;3.45;;;;;;;-0.77;57.62;101075.84;10296545;28;20051;-59
2023/04/04 02:54:09;;;;;;;8.90;2.90;;;;;;;-0.79;57.92;101072.41;10280182;28;20046;-59
2023/04/04 02:59:15;;;;;;;8.02;3.58;;;;;;;-0.80;58.01;101065.53;10281290;28;20055;-59
2023/04/04 03:04:20;;;;;;;7.25;2.60;;;;;;;-0.82;58.15;101074.13;10260964;28;20511;-59
2023/04/04 03:09:22;;;;;;;7.30;2.78;;;;;;;-0.88;57.80;101066.38;10272637;28;20182;-59
2023/04/04 03:14:25;;;;;;;10.60;3.10;;;;;;;-0.92;57.52;101070.63;10257602;28;20038;-61
2023/04/04 03:19:28;;;;;;;9.38;2.97;;;;;;;-1.01;57.59;101070.59;10256104;28;20061;-60
2023/04/04 03:24:30;;;;;;;4.60;2.83;;;;;;;-1.02;57.65;101050.06;10258665;28;20142;-60
2023/04/04 03:29:32;;;;;;;7.63;2.60;;;;;;;-1.02;57.54;101055.19;10260092;28;20046;-60
2023/04/04 03:34:34;;;;;;;9.98;3.50;;;;;;;-1.08;57.88;101060.31;10272331;28;20044;-60
2023/04/04 03:39:35;;;;;;;8.60;3.17;;;;;;;-1.10;58.10;101046.59;10259118;28;20061;-60
2023/04/04 03:44:41;;;;;;;5.85;2.80;;;;;;;-1.14;58.50;101038.00;10257188;28;20045;-60
2023/04/04 03:49:51;;;;;;;8.63;3.00;;;;;;;-1.13;58.83;101031.16;10258320;28;20058;-60
2023/04/04 03:54:53;;;;;;;5.63;2.95;;;;;;;-1.15;59.01;101031.16;10256090;28;20055;-60
2023/04/04 03:59:55;;;;;;;5.53;3.00;;;;;;;-1.16;58.86;101027.75;10257700;28;20046;-60
2023/04/04 04:04:57;;;;;;;7.80;2.85;;;;;;;-1.22;58.69;101031.97;10273273;28;20058;-60
2023/04/04 04:09:59;;;;;;;7.25;2.95;;;;;;;-1.25;58.70;101029.41;10273603;28;20420;-60
2023/04/04 04:15:01;;;;;;;6.63;2.60;;;;;;;-1.25;58.66;101027.69;10255040;28;20491;-60
2023/04/04 04:20:07;;;;;;;8.10;3.47;;;;;;;-1.36;58.56;101034.47;10273166;28;20047;-61
2023/04/04 04:25:15;;;;;;;6.47;2.78;;;;;;;-1.55;59.14;101030.06;10258123;28;20055;-60
2023/04/04 04:30:22;;;;;;;4.65;2.70;;;;;;;-1.51;59.17;101033.53;10272678;28;20043;-60
2023/04/04 04:35:24;;;;;;;6.95;3.38;;;;;;;-1.47;59.44;101040.41;10256889;28;20516;-60
2023/04/04 04:40:28;;;;;;;7.38;3.42;;;;;;;-1.44;59.48;101043.84;10255534;28;20039;-60
2023/04/04 04:45:41;;;;;;;8.23;3.25;;;;;;;-1.43;59.55;101042.13;10272439;28;20078;-60
2023/04/04 04:50:45;;;;;;;7.68;3.00;;;;;;;-1.65;59.33;101051.38;10255168;28;20186;-60
2023/04/04 04:55:51;;;;;;;7.60;3.22;;;;;;;-1.70;59.58;101050.50;10283778;28;20039;-60
2023/04/04 05:00:57;;;;;;;9.07;3.30;;;;;;;-1.59;59.85;101047.97;10259989;28;20422;-60
2023/04/04 05:06:07;;;;;;;10.73;3.40;;;;;;;-1.44;59.52;101040.41;10278124;28;20403;-60
2023/04/04 05:11:11;;;;;;;6.32;3.08;;;;;;;-1.35;59.56;101036.16;10256745;28;20038;-60
2023/04/04 05:16:12;;;;;;;7.63;3.30;;;;;;;-1.23;59.60;101030.28;10256578;28;20412;-60
2023/04/04 05:21:18;;;;;;;7.82;3.10;;;;;;;-1.15;59.25;101029.44;10254103;28;20047;-60
2023/04/04 05:26:23;;;;;;;6.78;3.05;;;;;;;-1.12;59.05;101044.00;10258737;28;20471;-60
2023/04/04 05:31:28;;;;;;;9.18;2.75;;;;;;;-1.02;58.83;101048.34;10272531;28;20121;-60
2023/04/04 05:36:32;;;;;;;6.40;3.10;;;;;;;-0.91;58.86;101056.09;10276721;28;20098;-60
2023/04/04 05:41:38;;;;;;;6.82;3.05;;;;;;;-0.73;58.84;101058.72;10270892;28;20411;-60
2023/04/04 05:46:50;;;;;;;7.15;3.10;;;;;;;-0.58;58.66;101048.53;10259370;28;20046;-61
2023/04/04 05:51:56;;;;;;;8.48;3.45;;;;;;;-0.58;58.54;101046.81;10287703;28;20061;-60
2023/04/04 05:56:59;;;;;;;9.13;3.10;;;;;;;-0.51;58.45;101053.66;10277822;28;20117;-60
2023/04/04 06:02:21;;;;;;;;;;;;;;;-0.51;58.53;101045.97;10260994;28;20505;-60
2023/04/04 06:07:27;;;;;;;9.98;3.10;;;;;;;-0.14;57.68;101046.03;10261900;28;19960;-61
2023/04/04 06:12:29;;;;;;;8.38;3.08;;;;;;;-0.02;57.07;101046.91;10283460;28;20054;-60
2023/04/04 06:17:31;;;;;;;6.70;3.00;;;;;;;0.12;56.90;101049.47;10278755;28;20073;-60
2023/04/04 06:22:33;;;;;;;5.22;3.03;;;;;;;0.00;56.89;101050.34;10255067;28;20239;-61
2023/04/04 06:27:36;;;;;;;5.95;3.05;;;;;;;0.07;56.74;101044.34;10257456;28;20050;-61
2023/04/04 06:32:41;;;;;;;8.32;3.05;;;;;;;0.21;56.52;101059.78;10256053;28;20046;-60
2023/04/04 06:37:47;;;;;;;7.20;3.00;;;;;;;0.31;56.31;101059.78;10255175;28;20063;-61
2023/04/04 06:42:56;;;;;;;10.55;3.42;;;;;;;0.44;55.51;101056.34;10283268;28;20049;-61
2023/04/04 06:48:02;;;;;;;8.15;3.70;;;;;;;0.52;54.95;101067.47;10271429;28;20040;-61
2023/04/04 06:53:07;;;;;;;7.15;3.13;;;;;;;0.60;55.16;101069.19;10268886;28;20051;-61
2023/04/04 06:58:09;;;;;;;8.68;3.67;;;;;;;0.59;54.55;101081.19;10257858;28;20519;-61
2023/04/04 07:03:11;;;;;;;7.05;3.35;;;;;;;0.75;55.10;101084.63;10248484;28;20116;-60
2023/04/04 07:08:13;;;;;;;8.23;3.85;;;;;;;0.69;54.53;101082.06;10255240;28;20039;-60
2023/04/04 07:13:15;;;;;;;9.02;3.53;;;;;;;0.73;53.93;101092.34;10252470;28;20039;-61
2023/04/04 07:18:17;;;;;;;10.85;4.05;;;;;;;0.80;54.05;101091.47;10256178;28;20050;-60
2023/04/04 07:23:19;;;;;;;10.80;4.13;;;;;;;0.85;53.08;101094.06;10252460;28;20050;-61
2023/04/04 07:28:20;;;;;;;8.15;3.65;;;;;;;1.05;53.21;101092.28;10257441;28;20047;-61
2023/04/04 07:33:22;;;;;;;8.98;3.67;;;;;;;1.15;52.62;101084.53;10251515;28;20065;-61
2023/04/04 07:38:24;;;;;;;7.45;3.47;;;;;;;1.30;52.06;101094.75;10255482;28;21434;-61
2023/04/04 07:43:26;;;;;;;10.18;3.40;;;;;;;1.59;51.54;101083.47;10250035;28;20513;-61
2023/04/04 07:48:27;;;;;;;6.70;3.22;;;;;;;2.25;50.01;101072.72;10255973;28;20058;-61
2023/04/04 07:53:29;;;;;;;8.02;3.45;;;;;;;3.07;48.39;101071.06;10253571;28;20081;-61
2023/04/04 07:58:33;;;;;;;7.55;3.60;;;;;;;3.66;47.49;101069.50;10259700;28;20054;-61
2023/04/04 08:03:34;;;;;;;9.95;3.53;;;;;;;4.30;45.93;101072.84;10259587;28;20061;-61
2023/04/04 08:08:36;;;;;;;8.85;3.28;;;;;;;4.80;45.71;101066.78;10263310;28;20113;-61
2023/04/04 08:13:38;;;;;;;6.57;3.30;;;;;;;4.96;43.85;101076.03;10264210;28;20055;-61
2023/04/04 08:18:40;;;;;;;5.70;3.33;;;;;;;4.51;43.61;101075.09;10277746;28;20049;-61
2023/04/04 08:23:42;;;;;;;8.40;3.50;;;;;;;4.99;43.50;101059.53;10263374;28;20069;-61
2023/04/04 08:28:44;;;;;;;5.57;2.58;;;;;;;5.42;42.20;101057.81;10265673;28;20363;-61
2023/04/04 08:33:46;;;;;;;6.20;2.85;;;;;;;5.73;41.22;101052.81;10271289;28;20046;-61
2023/04/04 08:38:48;;;;;;;7.15;2.47;;;;;;;6.14;40.04;101043.16;10270862;28;20059;-61
2023/04/04 08:43:53;;;;;;;9.07;2.80;;;;;;;6.61;38.96;101038.56;10270165;28;20055;-61
2023/04/04 08:48:57;;;;;;;6.15;2.47;;;;;;;6.65;37.61;101032.41;10271247;28;20051;-61
2023/04/04 08:54:01;;;;;;;4.70;2.45;;;;;;;6.38;37.68;101031.38;10269814;28;20462;-61
2023/04/04 08:59:02;;;;;;;5.05;2.63;;;;;;;6.96;37.58;101028.06;10285433;28;20047;-61
2023/04/04 09:04:06;;;;;;;5.07;2.72;;;;;;;6.77;35.28;101037.28;10269277;28;20051;-61
2023/04/04 09:09:08;;;;;;;4.28;2.50;;;;;;;6.29;37.79;101031.59;10252099;28;20054;-61
2023/04/04 09:14:10;;;;;;;4.80;2.40;;;;;;;6.40;36.43;101033.91;10268147;28;20350;-61
2023/04/04 09:19:12;;;;;;;5.57;2.58;;;;;;;6.68;37.67;101017.56;10268586;28;20054;-61
2023/04/04 09:24:14;;;;;;;7.18;2.67;;;;;;;7.27;36.65;101031.53;10267481;28;20077;-61
2023/04/04 09:29:18;;;;;;;7.53;2.58;;;;;;;7.16;36.18;101026.63;10269479;28;20069;-61
2023/04/04 09:34:20;;;;;;;5.70;2.53;;;;;;;7.23;36.50;101022.09;10267158;28;20125;-61
2023/04/04 09:39:22;;;;;;;6.03;2.50;;;;;;;7.67;35.50;101020.78;10269381;28;20043;-61
2023/04/04 09:44:24;;;;;;;10.20;2.75;;;;;;;7.92;35.25;101016.50;10266425;28;20134;-61
2023/04/04 09:49:26;;;;;;;7.43;2.70;;;;;;;7.42;35.29;101025.88;10268926;28;20472;-61
2023/04/04 09:54:29;;;;;;;5.20;2.38;;;;;;;7.60;35.51;101024.47;10268104;28;20467;-61
2023/04/04 09:59:32;;;;;;;5.43;2.45;;;;;;;7.06;34.93;101019.16;10299312;28;20508;-61
2023/04/04 10:04:35;;;;;;;5.82;2.50;;;;;;;6.85;34.93;101006.72;10267310;28;20050;-61
2023/04/04 10:09:37;;;;;;;5.82;2.63;;;;;;;7.10;35.17;101005.16;10266877;28;20046;-61
2023/04/04 10:14:39;;;;;;;7.32;2.70;;;;;;;7.30;35.36;100999.38;10267893;28;20142;-61
2023/04/04 10:19:42;;;;;;;6.95;2.65;;;;;;;7.39;35.56;101007.75;10266547;28;20039;-61
2023/04/04 10:24:45;;;;;;;6.93;2.40;;;;;;;7.25;34.53;100999.50;10267712;28;20054;-61
2023/04/04 10:29:46;;;;;;;4.65;2.55;;;;;;;7.33;34.12;101001.84;10266011;28;20194;-61
2023/04/04 10:35:00;;;;;;;6.10;2.80;;;;;;;7.50;33.36;100995.28;10266547;28;20061;-61
2023/04/04 10:40:16;;;;;;;7.07;2.42;;;;;;;7.31;33.25;100991.50;10262509;28;20080;-61
2023/04/04 10:45:20;;;;;;;6.63;2.60;;;;;;;7.34;33.65;100994.03;10265214;28;20058;-61
2023/04/04 10:50:24;;;;;;;6.65;2.80;;;;;;;7.05;33.56;100999.22;10263738;28;20150;-61
2023/04/04 10:55:30;;;;;;;5.28;2.20;;;;;;;6.64;35.40;100986.50;10263437;28;20507;-61
2023/04/04 11:00:33;;;;;;;6.82;2.65;;;;;;;6.86;35.59;100987.63;10263855;28;20051;-61
2023/04/04 11:05:40;;;;;;;4.45;2.20;;;;;;;6.94;35.97;100980.44;10264780;28;20495;-61
2023/04/04 11:10:44;;;;;;;5.47;2.30;;;;;;;7.02;35.35;100961.13;10264507;28;20074;-61
2023/04/04 11:15:58;;;;;;;5.15;2.33;;;;;;;6.83;34.24;100956.50;10264177;28;20042;-61
2023/04/04 11:21:02;;;;;;;6.38;2.25;;;;;;;7.15;34.49;100952.09;10278543;28;20142;-61
2023/04/04 11:26:06;;;;;;;5.35;2.53;;;;;;;6.90;33.27;100945.88;10264001;28;20142;-61
2023/04/04 11:31:17;;;;;;;4.22;2.40;;;;;;;6.89;33.70;100943.34;10265103;28;20402;-61
2023/04/04 11:36:50;;;;;;;5.18;2.40;;;;;;;7.02;34.51;100940.31;10264768;28;20051;-61
2023/04/04 11:41:53;;;;;;;5.88;2.67;;;;;;;7.01;34.68;100935.19;10263466;28;20293;-61
2023/04/04 11:47:04;;;;;;;4.70;2.55;;;;;;;7.17;33.45;100928.63;10263111;28;20039;-61
2023/04/04 11:52:15;;;;;;;5.40;2.50;;;;;;;7.16;34.14;100916.53;10264514;28;20419;-61
2023/04/04 11:57:18;;;;;;;4.70;2.30;;;;;;;7.07;34.52;100911.59;10262089;28;20046;-61
2023/04/04 12:02:28;;;;;;;5.88;2.17;;;;;;;7.09;34.50;100902.84;10264036;28;20054;-61
2023/04/04 12:07:30;;;;;;;5.78;2.58;;;;;;;7.29;33.17;100901.38;10268346;28;20407;-61
2023/04/04 12:12:37;;;;;;;4.97;2.40;;;;;;;7.30;33.55;100897.88;10269578;28;20049;-61
2023/04/04 12:17:40;;;;;;;4.72;2.35;;;;;;;7.42;32.44;100894.91;10265984;28;20129;-61
2023/04/04 12:22:42;;;;;;;7.72;2.60;;;;;;;7.55;33.68;100891.84;10267926;28;20106;-61
2023/04/04 12:27:45;;;;;;;6.25;2.38;;;;;;;7.69;33.31;100888.81;10269560;28;20766;-61
2023/04/04 12:32:49;;;;;;;5.13;2.30;;;;;;;7.69;34.07;100876.63;10266351;28;20042;-61
2023/04/04 12:38:06;;;;;;;4.47;2.45;;;;;;;7.72;31.10;100879.16;10281085;28;20066;-61
2023/04/04 12:43:08;;;;;;;5.80;2.42;;;;;;;7.77;33.02;100865.97;10263073;28;20159;-61
2023/04/04 12:48:12;;;;;;;7.35;2.58;;;;;;;7.89;32.93;100866.41;10266719;28;20097;-61
2023/04/04 12:53:15;;;;;;;5.25;2.70;;;;;;;7.88;33.47;100859.50;10264711;28;20470;-61
2023/04/04 12:58:30;;;;;;;7.28;2.47;;;;;;;8.03;33.80;100851.16;10265451;28;20043;-61
2023/04/04 13:03:36;;;;;;;5.80;2.40;;;;;;;8.24;32.67;100852.19;10257484;28;20058;-61
2023/04/04 13:08:48;;;;;;;5.47;2.40;;;;;;;7.99;31.08;100844.38;10269077;28;20067;-62
2023/04/04 13:14:01;;;;;;;6.93;2.38;;;;;;;8.22;32.01;100838.34;10268348;28;20061;-62
2023/04/04 13:19:03;;;;;;;5.82;2.45;;;;;;;8.70;32.68;100828.75;10269905;28;20050;-62
2023/04/04 13:24:05;;;;;;;6.65;2.30;;;;;;;8.74;32.23;100822.50;10269141;28;20082;-62
2023/04/04 13:29:07;;;;;;;6.65;2.58;;;;;;;8.64;31.49;100820.31;10267649;28;20043;-61
2023/04/04 13:34:09;;;;;;;5.18;2.40;;;;;;;8.60;32.94;100805.69;10266833;28;20522;-62
2023/04/04 13:39:10;;;;;;;5.07;2.47;;;;;;;8.70;31.07;100797.47;10269389;28;20055;-62
2023/04/04 13:44:13;;;;;;;4.97;2.40;;;;;;;8.66;30.93;100787.19;10266695;28;20049;-62
2023/04/04 13:49:15;;;;;;;5.40;2.55;;;;;;;8.80;31.21;100771.88;10265467;28;20077;-61
2023/04/04 13:54:16;;;;;;;6.38;2.30;;;;;;;9.02;31.31;100772.72;10261762;28;20057;-61
2023/04/04 13:59:18;;;;;;;5.68;2.40;;;;;;;9.27;30.18;100772.56;10266492;28;20538;-61
2023/04/04 14:04:20;;;;;;;4.13;2.20;;;;;;;9.10;30.57;100770.63;10265429;28;20774;-61
2023/04/04 14:09:24;;;;;;;5.47;2.30;;;;;;;9.01;30.25;100760.59;10264142;28;20079;-61
2023/04/04 14:14:26;;;;;;;6.65;2.72;;;;;;;9.35;30.18;100750.47;10265908;28;20061;-61
2023/04/04 14:19:28;;;;;;;4.95;2.90;;;;;;;9.32;30.48;100750.56;10266632;28;20301;-61
2023/04/04 14:24:30;;;;;;;4.78;2.53;;;;;;;9.53;30.44;100743.59;10263323;28;20058;-61
2023/04/04 14:29:31;;;;;;;5.80;2.67;;;;;;;9.73;30.45;100734.97;10264677;28;20053;-61
2023/04/04 14:34:33;;;;;;;6.43;2.40;;;;;;;9.23;29.68;100745.75;10263808;28;20073;-61
2023/04/04 14:39:35;;;;;;;5.38;2.70;;;;;;;9.15;30.25;100741.75;10261179;28;20031;-61
2023/04/04 14:44:37;;;;;;;5.15;2.72;;;;;;;9.05;30.50;100730.00;10265605;28;20053;-61
2023/04/04 14:49:39;;;;;;;6.05;2.80;;;;;;;9.10;30.47;100728.88;10264140;28;20790;-61
2023/04/04 14:54:40;;;;;;;6.72;2.70;;;;;;;8.97;30.59;100719.88;10263301;28;20047;-61
2023/04/04 14:59:43;;;;;;;6.03;2.70;;;;;;;9.24;31.30;100713.50;10265083;28;20498;-61
2023/04/04 15:04:45;;;;;;;5.20;2.78;;;;;;;9.52;30.90;100706.19;10259218;28;20042;-61
2023/04/04 15:09:46;;;;;;;5.93;2.90;;;;;;;9.48;30.55;100701.19;10263867;28;20479;-61
2023/04/04 15:14:48;;;;;;;4.38;2.78;;;;;;;9.17;29.90;100703.38;10269025;28;20533;-61
2023/04/04 15:19:50;;;;;;;7.70;2.78;;;;;;;9.17;29.81;100704.25;10262012;28;20055;-62
2023/04/04 15:24:54;;;;;;;5.63;2.75;;;;;;;9.05;30.08;100707.38;10256566;28;20043;-61
2023/04/04 15:29:55;;;;;;;5.28;3.03;;;;;;;9.37;30.48;100690.34;10262475;28;20047;-61
2023/04/04 15:34:57;;;;;;;5.25;2.72;;;;;;;9.40;30.22;100691.06;10261101;28;20353;-61
2023/04/04 15:39:59;;;;;;;5.55;2.83;;;;;;;9.25;30.19;100696.09;10253788;28;20165;-61
2023/04/04 15:45:03;;;;;;;5.57;2.35;;;;;;;9.03;29.59;100690.06;10265406;28;20839;-61
2023/04/04 15:50:05;;;;;;;6.95;3.03;;;;;;;9.25;30.15;100689.13;10254285;28;20504;-61
2023/04/04 15:55:13;;;;;;;4.72;2.75;;;;;;;9.21;30.46;100674.50;10273433;28;20061;-61
2023/04/04 16:00:15;;;;;;;4.57;2.67;;;;;;;9.17;31.25;100682.50;10257863;28;20345;-61
2023/04/04 16:05:18;;;;;;;8.13;2.65;;;;;;;9.15;32.19;100679.13;10257930;28;20078;-61
2023/04/04 16:10:19;;;;;;;8.15;2.60;;;;;;;9.30;32.30;100678.50;10255515;28;21826;-61
2023/04/04 16:15:21;;;;;;;6.63;3.30;;;;;;;8.85;31.42;100670.81;10256880;28;20039;-61
2023/04/04 16:20:26;;;;;;;7.40;2.78;;;;;;;8.74;32.10;100673.00;10255715;28;20055;-61
2023/04/04 16:25:28;;;;;;;5.10;2.88;;;;;;;8.63;32.91;100662.13;10256615;28;20381;-61
2023/04/04 16:30:30;;;;;;;5.10;2.85;;;;;;;8.64;33.06;100667.31;10254820;28;20046;-61
2023/04/04 16:35:33;;;;;;;5.95;2.80;;;;;;;8.70;32.47;100664.47;10255443;28;20082;-61
2023/04/04 16:40:35;;;;;;;3.83;2.30;;;;;;;8.85;31.79;100663.00;10255759;28;20178;-61
2023/04/04 16:45:37;;;;;;;4.80;2.50;;;;;;;8.92;31.18;100653.97;10255147;28;20186;-61
2023/04/04 16:50:39;;;;;;;4.57;2.50;;;;;;;8.96;31.85;100659.91;10257051;28;20051;-61
2023/04/04 16:55:41;;;;;;;5.97;2.70;;;;;;;9.14;32.84;100648.69;10266775;28;20043;-62
2023/04/04 17:00:43;;;;;;;10.50;2.85;;;;;;;8.93;32.85;100647.88;10268934;28;20051;-61
2023/04/04 17:05:46;;;;;;;7.45;2.60;;;;;;;8.56;31.81;100642.44;10262871;28;20117;-61
2023/04/04 17:10:47;;;;;;;5.60;2.83;;;;;;;8.43;33.14;100641.22;10266708;28;20503;-61
2023/04/04 17:15:49;;;;;;;7.60;2.78;;;;;;;8.38;32.88;100637.97;10260075;28;20047;-61
2023/04/04 17:20:51;;;;;;;4.45;2.50;;;;;;;8.32;33.13;100643.44;10264096;28;20051;-61
2023/04/04 17:25:54;;;;;;;7.05;2.90;;;;;;;8.22;33.69;100635.09;10259467;28;20078;-61
2023/04/04 17:30:57;;;;;;;4.80;2.65;;;;;;;8.04;34.48;100644.44;10262371;28;20046;-61
2023/04/04 17:35:59;;;;;;;6.35;2.58;;;;;;;7.88;34.74;100637.28;10267011;28;20145;-61
2023/04/04 17:41:03;;;;;;;5.88;2.72;;;;;;;7.73;35.00;100636.09;10265875;28;20922;-61
2023/04/04 17:46:05;;;;;;;4.07;2.55;;;;;;;7.51;35.05;100636.94;10260512;28;20815;-61
2023/04/04 17:51:07;;;;;;;5.45;3.20;;;;;;;7.23;36.15;100644.00;10261095;28;20045;-61
2023/04/04 17:56:09;;;;;;;6.38;2.92;;;;;;;7.02;36.46;100649.03;10257408;28;20050;-61
2023/04/04 18:01:12;;;;;;;4.45;2.60;;;;;;;6.80;36.54;100647.19;10264420;28;20057;-61
2023/04/04 18:06:14;;;;;;;6.20;2.95;;;;;;;6.58;37.13;100656.59;10261926;28;20046;-61
2023/04/04 18:11:17;;;;;;;7.13;2.78;;;;;;;6.39;37.72;100661.53;10263291;28;20074;-61
2023/04/04 18:16:19;;;;;;;4.13;2.40;;;;;;;6.22;38.26;100663.78;10262179;28;20051;-61
2023/04/04 18:21:21;;;;;;;6.88;2.90;;;;;;;6.21;39.07;100667.25;10262004;28;20112;-61
2023/04/04 18:26:23;;;;;;;6.90;2.60;;;;;;;6.12;38.51;100668.38;10261749;28;20050;-61
2023/04/04 18:31:25;;;;;;;6.13;3.42;;;;;;;6.03;38.33;100663.47;10259920;28;20050;-60
2023/04/04 18:36:27;;;;;;;8.93;4.65;;;;;;;5.91;39.07;100669.03;10262429;28;20050;-61
2023/04/04 18:41:29;;;;;;;10.40;6.35;;;;;;;5.79;39.48;100673.72;10261273;28;20495;-61
2023/04/04 18:46:30;;;;;;;9.73;5.93;;;;;;;5.50;40.17;100677.13;10262001;28;20138;-61
2023/04/04 18:51:32;;;;;;;7.75;4.25;;;;;;;5.25;40.83;100682.09;10258769;28;20054;-61
2023/04/04 18:56:34;;;;;;;13.30;6.20;;;;;;;5.25;41.34;100681.25;10261619;28;20047;-61
2023/04/04 19:01:39;;;;;;;11.55;5.50;;;;;;;5.21;41.13;100679.63;10263281;28;20310;-61
2023/04/04 19:06:42;;;;;;;10.13;5.32;;;;;;;5.17;41.51;100683.19;10261272;28;20411;-61
2023/04/04 19:11:46;;;;;;;7.60;5.45;;;;;;;5.10;41.76;100679.06;10261233;28;20054;-61
2023/04/04 19:16:48;;;;;;;8.23;4.60;;;;;;;4.96;41.24;100678.56;10262937;28;20046;-61
2023/04/04 19:21:50;;;;;;;11.20;6.70;;;;;;;4.83;42.01;100684.91;10257765;28;20106;-61
2023/04/04 19:26:51;;;;;;;14.18;7.18;;;;;;;4.71;42.51;100688.66;10257080;28;20038;-61
2023/04/04 19:31:54;;;;;;;9.82;5.95;;;;;;;4.58;43.83;100689.84;10256981;28;20130;-61
2023/04/04 19:36:56;;;;;;;7.88;4.35;;;;;;;4.48;44.40;100691.78;10253019;28;20046;-61
2023/04/04 19:41:59;;;;;;;4.72;3.08;;;;;;;4.33;44.72;100694.72;10250407;28;20303;-60
2023/04/04 19:47:00;;;;;;;7.07;3.92;;;;;;;4.15;45.18;100682.19;10259229;28;20061;-61
2023/04/04 19:52:04;;;;;;;9.27;3.80;;;;;;;4.03;45.69;100682.44;10256728;28;20316;-61
2023/04/04 19:57:12;;;;;;;6.18;3.20;;;;;;;3.96;45.90;100685.19;10258124;28;20073;-61
2023/04/04 20:02:48;;;;;;;5.55;2.72;;;;;;;3.86;46.54;100694.91;10254794;28;20492;-61
2023/04/04 20:07:50;;;;;;;4.78;2.33;;;;;;;3.82;46.27;100693.22;10254879;28;20446;-61
2023/04/04 20:12:52;;;;;;;5.95;3.05;;;;;;;3.72;46.40;100697.72;10258054;28;20478;-61
2023/04/04 20:17:54;;;;;;;11.68;3.00;;;;;;;3.57;46.99;100694.56;10256003;28;20124;-61
2023/04/04 20:22:56;;;;;;;5.93;2.90;;;;;;;3.31;47.43;100702.84;10255147;28;20101;-61
2023/04/04 20:27:58;;;;;;;7.05;3.10;;;;;;;3.21;47.40;100709.03;10261345;28;20046;-61
2023/04/04 20:33:06;;;;;;;7.55;3.30;;;;;;;3.12;47.90;100711.78;10264495;28;20053;-61
2023/04/04 20:38:19;;;;;;;6.30;3.45;;;;;;;3.09;48.17;100711.81;10261065;28;20092;-61
2023/04/04 20:43:22;;;;;;;6.35;3.45;;;;;;;2.98;48.29;100701.69;10261026;28;20055;-60
2023/04/04 20:48:35;;;;;;;6.28;3.38;;;;;;;2.94;49.14;100710.38;10261819;28;20047;-60
2023/04/04 20:53:37;;;;;;;9.02;4.10;;;;;;;2.95;48.44;100712.06;10262506;28;20165;-60
2023/04/04 20:58:39;;;;;;;6.20;3.67;;;;;;;2.72;49.14;100710.72;10260614;28;20133;-60
2023/04/04 21:03:41;;;;;;;7.55;3.53;;;;;;;2.73;49.22;100715.84;10262032;28;20049;-60
2023/04/04 21:08:48;;;;;;;6.65;3.63;;;;;;;2.72;49.43;100716.75;10259670;28;20054;-60
2023/04/04 21:13:50;;;;;;;7.05;3.70;;;;;;;2.64;49.85;100721.16;10265276;28;20214;-60
2023/04/04 21:18:57;;;;;;;5.90;3.45;;;;;;;2.56;50.40;100727.31;10262191;28;20039;-60
2023/04/04 21:23:59;;;;;;;8.10;4.00;;;;;;;2.47;50.56;100727.44;10262091;28;20512;-60
2023/04/04 21:29:22;;;;;;;6.35;3.85;;;;;;;2.33;51.05;100722.50;10258412;28;20986;-60
2023/04/04 21:34:25;;;;;;;7.25;4.35;;;;;;;2.34;50.75;100724.19;10260340;28;20519;-60
2023/04/04 21:39:31;;;;;;;9.70;3.72;;;;;;;2.31;50.69;100720.78;10263064;28;20049;-60
2023/04/04 21:44:32;;;;;;;7.32;3.83;;;;;;;2.26;50.86;100736.34;10258083;28;20054;-60
2023/04/04 21:49:34;;;;;;;6.28;3.38;;;;;;;2.16;51.09;100738.19;10265274;28;20031;-60
2023/04/04 21:54:36;;;;;;;5.50;3.08;;;;;;;2.10;51.30;100737.41;10261619;28;20050;-60
2023/04/04 21:59:37;;;;;;;7.35;3.70;;;;;;;1.64;51.84;100734.53;10261010;28;20045;-60
2023/04/04 22:04:39;;;;;;;9.10;3.70;;;;;;;1.50;52.55;100748.44;10260059;28;20432;-60
2023/04/04 22:09:41;;;;;;;6.35;3.85;;;;;;;1.61;52.67;100737.13;10259295;28;20384;-60
2023/04/04 22:14:44;;;;;;;7.53;3.95;;;;;;;1.69;52.49;100742.19;10259906;28;20046;-60
2023/04/04 22:19:57;;;;;;;11.57;4.63;;;;;;;1.72;52.73;100734.44;10258985;28;20050;-60
2023/04/04 22:25:02;;;;;;;11.70;4.78;;;;;;;1.76;52.64;100734.41;10259042;28;20463;-60
2023/04/04 22:30:06;;;;;;;8.57;4.07;;;;;;;1.76;52.62;100728.38;10257769;28;20077;-60
2023/04/04 22:35:08;;;;;;;8.73;4.25;;;;;;;1.80;52.72;100727.47;10258516;28;20106;-60
2023/04/04 22:40:11;;;;;;;7.45;4.07;;;;;;;1.78;52.70;100722.34;10260435;28;20256;-60
2023/04/04 22:45:13;;;;;;;6.00;3.83;;;;;;;1.74;53.14;100717.22;10260969;28;20387;-60
2023/04/04 22:50:16;;;;;;;7.32;3.47;;;;;;;1.81;53.19;100713.69;10254752;28;20201;-60
2023/04/04 22:55:21;;;;;;;8.00;3.85;;;;;;;1.73;53.21;100712.91;10258858;28;20043;-60
2023/04/04 23:00:22;;;;;;;8.48;4.30;;;;;;;1.71;53.46;100709.50;10256184;28;20231;-60
2023/04/04 23:05:24;;;;;;;7.78;4.10;;;;;;;1.65;53.32;100707.88;10255859;28;20050;-60
2023/04/04 23:10:26;;;;;;;7.43;3.80;;;;;;;1.59;53.67;100705.34;10257026;28;20048;-60
2023/04/04 23:15:28;;;;;;;6.18;4.13;;;;;;;1.49;53.57;100702.88;10256856;28;20066;-60
2023/04/04 23:20:32;;;;;;;6.88;4.45;;;;;;;1.32;53.76;100697.91;10256484;28;20388;-60
2023/04/04 23:25:34;;;;;;;9.77;4.43;;;;;;;1.16;54.20;100691.19;10257682;28;20416;-60